Eielson Air Force Base


Codes: PAEI/EIL
Name: Eielson Air Force Base
City: Fairbanks
Country: United States
Elevation: 547 ft.
Wikipedia:

Photos at Eielson Air Force Base


   Photos courtesy of SpottingLog. You can add your own sightings and photos by signing up for a free trial today.



No photos found.

Weather at Eielson Air Force Base


Time (UTC)DescriptionTempratureWindCloud coverageVisibilityPressureHumidity
17-Jun-2024 06:00Clear Sky24°C2 mph, SW0%10000m1013hPa34%
17-Jun-2024 09:00Few Clouds21°C2 mph, S18%10000m1013hPa45%
17-Jun-2024 12:00Scattered Clouds16°C2 mph, S26%10000m1014hPa62%
17-Jun-2024 15:00Few Clouds16°C2 mph, SW13%10000m1014hPa62%
17-Jun-2024 18:00Few Clouds21°C2 mph, W11%10000m1013hPa43%
17-Jun-2024 21:00Clear Sky24°C4 mph, W7%10000m1012hPa33%
18-Jun-2024 00:00Clear Sky25°C4 mph, W8%10000m1010hPa29%
18-Jun-2024 03:00Scattered Clouds24°C4 mph, SW30%10000m1009hPa35%
18-Jun-2024 06:00Scattered Clouds19°C7 mph, SW32%10000m1010hPa61%
18-Jun-2024 09:00Broken Clouds14°C2 mph, SE82%10000m1011hPa81%
18-Jun-2024 12:00Broken Clouds12°C0 mph, SW75%10000m1011hPa90%
18-Jun-2024 15:00Scattered Clouds15°C2 mph, SW49%10000m1012hPa78%
18-Jun-2024 18:00Scattered Clouds19°C4 mph, W38%10000m1012hPa56%
18-Jun-2024 21:00Few Clouds23°C4 mph, W19%10000m1010hPa42%
19-Jun-2024 00:00Few Clouds24°C4 mph, W23%10000m1009hPa34%
19-Jun-2024 03:00Scattered Clouds24°C7 mph, NW32%10000m1008hPa31%
19-Jun-2024 06:00Scattered Clouds19°C2 mph, SE40%10000m1009hPa59%
19-Jun-2024 09:00Light Rain12°C2 mph, SE82%10000m1011hPa92%
19-Jun-2024 12:00Light Rain11°C2 mph, SE69%10000m1013hPa96%
19-Jun-2024 15:00Light Rain14°C2 mph, S81%10000m1013hPa89%
19-Jun-2024 18:00Broken Clouds18°C2 mph, W65%10000m1013hPa62%
19-Jun-2024 21:00Broken Clouds23°C4 mph, W78%10000m1011hPa42%
20-Jun-2024 00:00Scattered Clouds24°C4 mph, W46%10000m1010hPa33%
20-Jun-2024 03:00Light Rain18°C9 mph, S35%10000m1011hPa59%
20-Jun-2024 06:00Broken Clouds16°C2 mph, S59%10000m1011hPa77%
20-Jun-2024 09:00Light Rain12°C2 mph, SE59%10000m1013hPa93%
20-Jun-2024 12:00Light Rain11°C2 mph, SE75%10000m1013hPa95%
20-Jun-2024 15:00Overcast Clouds13°C2 mph, S85%10000m1013hPa87%
20-Jun-2024 18:00Broken Clouds17°C4 mph, SW82%10000m1013hPa58%
20-Jun-2024 21:00Overcast Clouds21°C4 mph, W97%10000m1011hPa43%
21-Jun-2024 00:00Broken Clouds23°C4 mph, W84%10000m1010hPa34%
21-Jun-2024 03:00Overcast Clouds22°C9 mph, W95%10000m1009hPa38%
21-Jun-2024 06:00Overcast Clouds15°C9 mph, W96%10000m1010hPa70%
21-Jun-2024 09:00Light Rain12°C2 mph, S100%10000m1011hPa90%
21-Jun-2024 12:00Overcast Clouds11°C2 mph, SW100%10000m1012hPa93%
21-Jun-2024 15:00Light Rain12°C2 mph, SW100%10000m1011hPa90%
21-Jun-2024 18:00Light Rain12°C4 mph, SW100%10000m1011hPa87%
21-Jun-2024 21:00Light Rain11°C4 mph, SW100%10000m1012hPa96%
22-Jun-2024 00:00Light Rain11°C4 mph, SW100%6652m1012hPa97%
22-Jun-2024 03:00Moderate Rain11°C4 mph, SW100%3740m1012hPa98%